Latest Coastal Weather Observations for Avalon

IDV60701

Issued at 6:31 pm EST Wednesday 24 August 2016 (issued every 10 minutes, with the page automatically refreshed every 10 minutes)

About coastal observations | Map of coastal stations | Coastal observations for VIC | Marine services | Other Formats
Station Details ID: 087113 Name: AVALON AIRPORT Lat: -38.03 Lon: 144.48 Height: 10.6 m
Data from the previous 72 hours. | See also: Recent months at Avalon
Date/Time
EST
Temp
°C
Wind Pressure Rain since
9am
mm
Weather Cloud Vis
km
Sea
Height
m
Swell
Dir  Spd
kts
Gust
kts
hPa Trend Height
m
Period
s
Dir
24/06:30pm 9.5 S 7 8 1014.2 - 2.0 - Cloudy 10 - - - -
24/06:00pm 9.6 S 7 9 1014.1 - 2.0 - Cloudy 10 - - - -
24/05:30pm 10.1 S 7 9 1014.0 - 2.0 - Cloudy 10 - - - -
24/05:00pm 10.3 SE 5 7 1013.9 - 2.0 - Partly cloudy 10 - - - -
24/04:30pm 10.6 SSE 6 9 1013.8 - 2.0 - Partly cloudy 10 - - - -
24/04:00pm 11.0 SSE 8 11 1013.9 - 2.0 - Partly cloudy 10 - - - -
24/03:30pm 11.3 SSE 13 16 1014.0 - 2.0 - Partly cloudy 10 - - - -
24/03:00pm 10.4 SSE 12 16 1014.0 - 2.0 Showers Cloudy 7 - - - -
24/02:30pm 10.8 SSE 11 17 1014.0 - 2.0 - Partly cloudy 10 - - - -
24/02:00pm 10.4 S 8 10 1014.1 - 2.0 - Partly cloudy 10 - - - -
24/01:30pm 10.3 S 11 14 1014.4 - 2.0 - Partly cloudy 10 - - - -
24/01:00pm 10.8 SSW 12 15 1014.7 - 2.0 - Partly cloudy 10 - - - -
24/12:30pm 11.7 SSW 8 10 1014.8 - 2.0 - Partly cloudy 10 - - - -
24/12:00pm 10.7 SSW 9 11 1015.0 - 2.0 - Cloudy 10 - - - -
24/11:30am 11.1 SSW 6 11 1015.5 - 2.0 - Partly cloudy 10 - - - -
24/11:00am 10.1 WNW 5 7 1015.8 - 2.0 - Partly cloudy 10 - - - -
24/10:30am 8.6 WNW 6 7 1016.2 - 2.0 - Partly cloudy 10 - - - -
24/10:09am 8.1 WNW 7 8 1016.5 - 1.4 - Partly cloudy 6 - - - -
24/10:03am 8.2 WNW 7 9 1016.5 - 1.0 - Partly cloudy 10 - - - -
24/10:00am 8.0 WNW 8 9 1016.5 - 1.0 - Partly cloudy 10 - - - -
24/09:32am 7.3 WNW 5 7 1016.6 - 0.4 - Partly cloudy 6 - - - -
24/09:30am 7.4 WNW 5 7 1016.7 - 0.2 - Partly cloudy 8 - - - -
24/09:25am 7.3 WNW 6 8 1016.7 - 0.2 - Partly cloudy 10 - - - -
24/09:00am 6.8 WNW 7 8 1016.8 - 0.2 Showers Cloudy 6 - - - -
24/08:49am 6.7 WNW 7 8 1016.7 - 0.2 - Partly cloudy 10 - - - -
24/08:32am 6.5 WNW 7 9 1016.8 - 0.2 - Partly cloudy 6 - - - -
24/08:30am 6.5 W 7 9 1016.8 - 0.2 - Partly cloudy 7 - - - -
24/08:00am 6.2 W 7 9 1016.8 - 0.0 - Partly cloudy 9 - - - -
24/07:30am 6.1 WNW 6 8 1016.7 - 0.0 - Partly cloudy 10 - - - -
24/07:00am 5.7 NW 6 7 1016.7 - 0.0 - Partly cloudy 10 - - - -
24/06:30am 5.5 W 7 9 1016.5 - 0.0 - Cloudy 10 - - - -
24/06:00am 5.0 WNW 7 8 1016.5 - 0.0 Recent precip. Cloudy 10 - - - -
24/05:30am 5.0 NW 5 6 1016.4 - 0.0 - Partly cloudy 10 - - - -
24/05:00am 4.9 NW 5 6 1016.5 - 0.0 - Partly cloudy 10 - - - -
24/04:30am 5.0 WNW 6 7 1016.3 - 0.0 - Partly cloudy 10 - - - -
24/04:00am 3.9 WNW 6 6 1016.4 - 0.0 - Partly cloudy 10 - - - -
24/03:30am 4.6 WNW 5 6 1016.5 - 0.0 - Partly cloudy 10 - - - -
24/03:00am 4.6 WNW 5 6 1016.7 - 0.0 - Cloudy 10 - - - -
24/02:30am 3.7 W 5 6 1016.9 - 0.0 - Partly cloudy 10 - - - -
24/02:00am 4.1 WNW 5 6 1017.1 - 0.0 - Partly cloudy 10 - - - -
24/01:30am 3.5 WNW 4 5 1017.2 - 0.0 - - 10 - - - -
24/01:00am 3.7 WNW 5 6 1017.5 - 0.0 - - 10 - - - -
24/12:30am 3.6 NW 5 6 1017.6 - 0.0 - - 10 - - - -
24/12:00am 3.9 NNW 6 7 1017.8 - 0.0 - - 10 - - - -
 
Date/Time
EST
Temp
°C
Wind Pressure Rain since
9am
mm
Weather Cloud Vis
km
Sea
Height
m
Swell
Dir  Spd
kts
Gust
kts
hPa Trend Height
m
Period
s
Dir
23/11:30pm 3.8 NNW 7 7 1017.7 - 0.0 - - 10 - - - -
23/11:00pm 4.2 NW 5 5 1017.6 - 0.0 - - 10 - - - -
23/10:30pm 4.4 NW 4 5 1017.8 - 0.0 - - 10 - - - -
23/10:00pm 5.7 WSW 4 5 1017.9 - 0.0 - - 10 - - - -
23/09:30pm 5.2 SSW 2 5 1018.0 - 0.0 - - 10 - - - -
23/09:00pm 5.7 S 8 9 1018.1 - 0.0 - - 10 - - - -
23/08:30pm 6.4 S 8 9 1018.0 - 0.0 - - 10 - - - -
23/08:00pm 6.8 S 8 9 1017.7 - 0.0 - - 10 - - - -
23/07:30pm 6.6 S 8 9 1017.8 - 0.0 - - 10 - - - -
23/07:00pm 6.7 S 9 10 1017.7 - 0.0 - - 10 - - - -
23/06:30pm 7.6 S 9 10 1017.7 - 0.0 - - 10 - - - -
23/06:00pm 7.9 SSE 6 7 1017.7 - 0.0 - - 10 - - - -
23/05:30pm 9.7 SE 6 7 1017.7 - 0.0 - - 10 - - - -
23/05:00pm 11.3 SE 7 8 1017.5 - 0.0 - Partly cloudy 10 - - - -
23/04:30pm 11.2 SSE 6 8 1017.6 - 0.0 - Partly cloudy 10 - - - -
23/04:00pm 12.3 SSE 7 9 1017.6 - 0.0 - Cloudy 10 - - - -
23/03:30pm 13.4 SSE 8 11 1017.3 - 0.0 - Partly cloudy 10 - - - -
23/03:00pm 13.4 S 8 11 1017.0 - 0.0 - Cloudy 10 - - - -
23/02:30pm 13.7 S 6 8 1016.9 - 0.0 - Cloudy 10 - - - -
23/02:00pm 13.2 S 9 11 1016.8 - 0.0 - Partly cloudy 10 - - - -
23/01:30pm 13.0 SSE 6 8 1016.7 - 0.0 - Partly cloudy 10 - - - -
23/01:00pm 12.9 SSE 7 11 1016.8 - 0.0 - Partly cloudy 10 - - - -
23/12:30pm 12.0 S 6 9 1017.0 - 0.0 - Partly cloudy 10 - - - -
23/12:00pm 12.7 SSE 3 6 1017.2 - 0.0 - Cloudy 10 - - - -
23/11:30am 12.3 SSW 3 7 1017.6 - 0.0 - Partly cloudy 10 - - - -
23/11:00am 11.7 SSW 5 7 1017.8 - 0.0 - - 10 - - - -
23/10:30am 11.4 WSW 5 7 1018.0 - 0.0 - - 10 - - - -
23/10:00am 11.0 W 5 7 1018.1 - 0.0 - - 10 - - - -
23/09:30am 9.7 W 6 7 1018.3 - 0.0 - - 10 - - - -
23/09:00am 9.0 WNW 7 7 1018.2 - 9.2 - - 10 - - - -
23/08:30am 8.0 NW 5 6 1018.1 - 9.2 - - 10 - - - -
23/08:00am 6.7 NW 5 6 1017.9 - 9.2 - - 10 - - - -
23/07:30am 5.7 WNW 5 6 1017.6 - 9.2 - - 10 - - - -
23/07:00am 6.1 NW 5 6 1017.3 - 9.2 - - 10 - - - -
23/06:30am 6.5 WNW 4 5 1017.0 - 9.2 - Cloudy 10 - - - -
23/06:00am 6.8 WNW 5 5 1016.7 - 9.2 - Cloudy 10 - - - -
23/05:30am 6.5 WNW 5 6 1016.5 - 9.2 - Cloudy 10 - - - -
23/05:00am 6.0 WNW 6 6 1016.5 - 9.2 - Partly cloudy 10 - - - -
23/04:56am 5.9 WNW 5 7 1016.4 - 9.2 - Partly cloudy 10 - - - -
23/04:30am 5.7 WNW 6 7 1016.2 - 9.2 - - 2 - - - -
23/04:00am 5.8 NW 5 5 1015.9 - 9.2 - Partly cloudy 0.5 - - - -
23/03:30am 7.1 NW 3 4 1015.7 - 9.2 - Partly cloudy 2 - - - -
23/03:16am 7.2 WNW 4 4 1015.9 - 9.2 - Cloudy 6 - - - -
23/03:07am 7.3 WNW 4 5 1016.0 - 9.2 - Partly cloudy 8 - - - -
23/03:00am 7.4 WNW 4 5 1016.0 - 9.2 - Cloudy 9 - - - -
23/02:30am 7.5 WSW 5 6 1015.9 - 9.2 - Partly cloudy 3 - - - -
23/02:00am 8.2 WSW 3 4 1016.0 - 9.2 - Partly cloudy 6 - - - -
23/01:55am 8.2 W 3 4 1016.1 - 9.2 - Partly cloudy 6 - - - -
23/01:30am 8.4 W 3 4 1016.2 - 9.2 - Cloudy 10 - - - -
23/01:00am 8.3 W 3 4 1016.3 - 9.2 - Cloudy 10 - - - -
23/12:30am 8.4 CALM 0 0 1016.4 - 9.2 - Partly cloudy 10 - - - -
23/12:00am 8.6 NW 3 4 1016.3 - 9.2 - Cloudy 10 - - - -
 
Date/Time
EST
Temp
°C
Wind Pressure Rain since
9am
mm
Weather Cloud Vis
km
Sea
Height
m
Swell
Dir  Spd
kts
Gust
kts
hPa Trend Height
m
Period
s
Dir
22/11:30pm 8.5 NNW 4 4 1016.3 - 9.2 - Partly cloudy 10 - - - -
22/11:00pm 8.6 NW 4 5 1016.4 - 9.2 - Partly cloudy 10 - - - -
22/10:30pm 8.6 CALM 0 0 1016.4 - 9.2 - Partly cloudy 10 - - - -
22/10:00pm 8.5 CALM 0 2 1016.3 - 9.2 - Partly cloudy 10 - - - -
22/09:30pm 8.5 WNW 4 5 1016.1 - 9.2 - Partly cloudy 10 - - - -
22/09:00pm 8.4 W 2 5 1016.0 - 9.2 - Cloudy 10 - - - -
22/08:30pm 8.4 W 5 7 1015.7 - 9.2 - Partly cloudy 10 - - - -
22/08:00pm 8.5 WNW 6 7 1015.4 - 9.2 - Partly cloudy 10 - - - -
22/07:30pm 8.6 W 5 6 1015.1 - 9.2 - Cloudy 10 - - - -
22/07:00pm 8.7 SW 4 5 1014.6 - 9.2 - Partly cloudy 10 - - - -
22/06:30pm 8.7 SE 6 7 1014.0 - 9.2 - Partly cloudy 10 - - - -
22/06:25pm 8.7 SE 6 9 1014.1 - 9.2 - Partly cloudy 10 - - - -
22/06:13pm 8.7 SE 9 11 1013.8 - 8.6 - Cloudy 6 - - - -
22/06:00pm 8.6 SE 8 10 1014.0 - 6.8 Rain Cloudy 8 - - - -
22/05:30pm 8.8 SSW 7 9 1014.1 - 3.8 - Partly cloudy 9 - - - -
22/05:10pm 8.9 SW 8 12 1013.8 - 2.6 - Partly cloudy 10 - - - -
22/05:00pm 9.7 SW 8 12 1013.8 - 2.0 - Partly cloudy 6 - - - -
22/04:47pm 10.4 NW 9 13 1013.6 - 0.8 - Partly cloudy 6 - - - -
22/04:30pm 11.6 SE 9 11 1013.1 - 0.0 - Partly cloudy 10 - - - -
22/04:00pm 12.1 SE 7 11 1012.6 - 0.0 - Partly cloudy 10 - - - -
22/03:30pm 12.6 E 7 8 1012.7 - 0.0 - Cloudy 10 - - - -
22/03:00pm 13.6 SE 6 11 1012.3 - 0.0 - Cloudy 10 - - - -
22/02:30pm 13.8 S 6 8 1012.3 - 0.0 - Partly cloudy 10 - - - -
22/02:00pm 14.5 S 7 10 1012.3 - 0.0 - - 10 - - - -
22/01:30pm 14.4 SW 8 13 1012.6 - 0.0 - Partly cloudy 10 - - - -
22/01:00pm 13.9 SSW 7 11 1012.9 - 0.0 - Partly cloudy 10 - - - -
22/12:30pm 13.1 SE 7 9 1013.3 - 0.0 - - 10 - - - -
22/12:00pm 13.1 SE 6 8 1013.5 - 0.0 - Mostly clear 10 - - - -
22/11:30am 12.9 ESE 6 9 1013.7 - 0.0 - - 10 - - - -
22/11:00am 12.7 E 6 10 1013.9 - 0.0 - - 10 - - - -
22/10:30am 12.3 ESE 4 6 1014.0 - 0.0 - - 10 - - - -
22/10:00am 11.9 ENE 4 6 1014.2 - 0.0 - - 10 - - - -
22/09:30am 11.1 CALM 0 5 1014.3 - 0.0 - - 10 - - - -
22/09:00am 10.2 CALM 0 0 1014.2 - 0.4 - - 10 - - - -
22/08:30am 8.4 CALM 0 0 1014.1 - 0.4 - - 10 - - - -
22/08:00am 5.9 CALM 0 0 1014.2 - 0.4 - Partly cloudy 10 - - - -
22/07:30am 4.4 N 3 4 1014.0 - 0.4 - Partly cloudy 10 - - - -
22/07:00am 3.6 N 3 5 1013.9 - 0.4 - - 10 - - - -
22/06:30am 3.5 SSE 2 6 1013.8 - 0.4 - Partly cloudy 10 - - - -
22/06:00am 3.4 W 2 3 1013.5 - 0.4 - Mostly clear 10 - - - -
22/05:30am 4.8 NNW 5 7 1013.4 - 0.4 - - 10 - - - -
22/05:00am 5.8 WNW 6 7 1013.3 - 0.4 - - 10 - - - -
22/04:30am 5.2 NW 6 7 1013.3 - 0.4 - - 10 - - - -
22/04:00am 5.3 NW 6 7 1013.4 - 0.4 - - 10 - - - -
22/03:30am 5.4 WNW 7 8 1013.5 - 0.4 - - 10 - - - -
22/03:00am 6.9 WSW 8 11 1013.7 - 0.4 Recent precip. Cloudy 10 - - - -
22/02:30am 7.3 NNW 6 7 1013.8 - 0.2 - - 10 - - - -
22/02:00am 7.6 NNW 5 6 1013.9 - 0.2 - - 10 - - - -
22/01:30am 8.2 N 5 6 1014.0 - 0.2 - Cloudy 10 - - - -
22/01:00am 8.0 N 5 6 1013.9 - 0.2 - Partly cloudy 10 - - - -
22/12:30am 8.7 N 5 5 1013.7 - 0.2 - Cloudy 10 - - - -
22/12:00am 8.6 N 6 7 1013.9 - 0.2 - Cloudy 10 - - - -
 
Date/Time
EST
Temp
°C
Wind Pressure Rain since
9am
mm
Weather Cloud Vis
km
Sea
Height
m
Swell
Dir  Spd
kts
Gust
kts
hPa Trend Height
m
Period
s
Dir
21/11:30pm 8.8 NNW 4 6 1013.9 - 0.2 - Partly cloudy 10 - - - -
21/11:00pm 8.7 NNW 2 4 1014.0 - 0.2 - Partly cloudy 10 - - - -
21/10:30pm 9.2 CALM 0 0 1014.2 - 0.2 - Partly cloudy 10 - - - -
21/10:00pm 10.0 W 3 4 1014.2 - 0.2 - Cloudy 10 - - - -
21/09:30pm 10.3 NW 4 5 1014.2 - 0.2 - Partly cloudy 10 - - - -
21/09:00pm 10.1 NW 3 4 1014.3 - 0.2 Drizzle Cloudy 10 - - - -
21/08:30pm 10.2 NW 4 6 1013.9 - 0.2 - Partly cloudy 10 - - - -
21/08:00pm 10.1 NNW 6 8 1013.7 - 0.2 - Partly cloudy 10 - - - -
21/07:30pm 9.7 NNW 6 8 1013.7 - 0.2 - Partly cloudy 10 - - - -
21/07:00pm 10.4 NW 7 8 1013.4 - 0.2 - Partly cloudy 10 - - - -

Other Formats:

Comma delimited format used in spreadsheet applications
http://www.bom.gov.au/fwo/IDV60701/IDV60701.94854.axf

JavaScript Object Notation format (JSON) in row-major order
http://www.bom.gov.au/fwo/IDV60701/IDV60701.94854.json